Time;durP1;ratioP1;P1;durP2;ratioP2;P2;SDS_P1;SDS_P2;PMS_P1;PMS_P2;Temp;Humidity;BMP_temperature;BMP_pressure;BME280_temperature;BME280_humidity;BME280_pressure;Samples;Min_cycle;Max_cycle;Signal;HPM_P1;HPM_P2
2022/10/10 00:00:22;;;;;;;;;;;;;;;12.43;70.76;100721.50;4496956;31;35428;-77
2022/10/10 00:03:08;;;;;;;;;;;;;;;12.34;71.04;100729.59;4494228;31;34440;-77
2022/10/10 00:05:54;;;;;;;;;;;;;;;12.31;70.97;100723.88;4474085;31;34126;-77
2022/10/10 00:08:41;;;;;;;;;;;;;;;12.36;70.55;100727.38;4497084;31;34631;-77
2022/10/10 00:11:26;;;;;;;;;;;;;;;12.40;70.30;100724.84;4484776;31;35275;-77
2022/10/10 00:14:12;;;;;;;;;;;;;;;12.28;70.71;100724.47;4485898;31;34922;-77
2022/10/10 00:16:58;;;;;;;;;;;;;;;12.20;71.37;100728.69;4495153;31;33736;-77
2022/10/10 00:19:44;;;;;;;;;;;;;;;12.19;70.77;100720.75;4484667;31;33590;-77
2022/10/10 00:22:30;;;;;;;;;;;;;;;12.29;69.80;100715.13;4495880;31;34757;-77
2022/10/10 00:25:17;;;;;;;;;;;;;;;12.07;70.60;100713.78;4484328;31;34731;-77
2022/10/10 00:28:03;;;;;;;;;;;;;;;12.00;70.59;100707.00;4484530;31;34220;-77
2022/10/10 00:30:49;;;;;;;;;;;;;;;11.98;69.75;100714.69;4485635;31;35968;-77
2022/10/10 00:33:35;;;;;;;;;;;;;;;12.13;69.12;100707.09;4496890;31;35766;-77
2022/10/10 00:36:22;;;;;;;;;;;;;;;12.18;69.38;100713.62;4496398;31;35003;-77
2022/10/10 00:39:08;;;;;;;;;;;;;;;11.98;69.61;100706.47;4496160;31;34847;-76
2022/10/10 00:41:54;;;;;;;;;;;;;;;12.06;68.08;100697.56;4496477;31;35884;-77
2022/10/10 00:44:41;;;;;;;;;;;;;;;12.05;68.74;100696.75;4496074;31;36548;-77
2022/10/10 00:47:27;;;;;;;;;;;;;;;11.61;70.57;100697.81;4484989;31;34991;-77
2022/10/10 00:50:13;;;;;;;;;;;;;;;11.88;68.90;100693.69;4496593;31;34087;-77
2022/10/10 00:52:59;;;;;;;;;;;;;;;11.64;69.14;100688.16;4496087;31;35023;-77
2022/10/10 00:55:46;;;;;;;;;;;;;;;11.88;69.12;100690.94;4482928;31;36779;-77
2022/10/10 00:58:32;;;;;;;;;;;;;;;11.93;68.49;100686.19;4484626;31;34944;-77
2022/10/10 01:01:18;;;;;;;;;;;;;;;11.71;66.98;100683.16;4483914;31;33669;-77
2022/10/10 01:04:05;;;;;;;;;;;;;;;11.83;67.15;100682.72;4496215;31;35009;-77
2022/10/10 01:06:50;;;;;;;;;;;;;;;11.79;68.40;100678.94;4486926;31;35694;-77
2022/10/10 01:09:38;;;;;;;;;;;;;;;11.55;69.44;100674.25;4485798;31;35659;-77
2022/10/10 01:12:26;;;;;;;;;;;;;;;11.79;65.52;100678.94;4486494;31;35002;-77
2022/10/10 01:15:12;;;;;;;;;;;;;;;11.79;66.56;100673.47;4486947;31;34976;-77
2022/10/10 01:18:09;;;;;;;;;;;;;;;11.62;66.87;100679.44;4498181;31;34852;-77
2022/10/10 01:21:10;;;;;;;;;;;;;;;11.79;66.67;100673.47;4486494;31;36056;-77
2022/10/10 01:24:15;;;;;;;;;;;;;;;11.76;66.74;100668.56;4498691;31;34316;-77
2022/10/10 01:27:21;;;;;;;;;;;;;;;11.87;65.58;100678.34;4498305;31;35769;-77
2022/10/10 01:30:11;;;;;;;;;;;;;;;11.81;65.31;100665.72;4484364;31;34786;-77
2022/10/10 01:33:04;;;;;;;;;;;;;;;11.73;66.16;100669.97;4487221;31;35660;-77
2022/10/10 01:35:51;;;;;;;;;;;;;;;11.79;65.29;100668.78;4486404;31;34646;-77
2022/10/10 01:38:42;;;;;;;;;;;;;;;11.51;66.27;100666.94;4486306;31;35866;-77
2022/10/10 01:41:42;;;;;;;;;;;;;;;11.65;66.07;100662.38;4486031;31;35141;-77
2022/10/10 01:44:28;;;;;;;;;;;;;;;11.66;66.42;100664.81;4487423;31;33809;-77
2022/10/10 01:47:14;;;;;;;;;;;;;;;11.64;65.91;100664.31;4486586;31;34154;-77
2022/10/10 01:50:02;;;;;;;;;;;;;;;11.58;66.09;100659.94;4498322;31;34595;-77
2022/10/10 01:52:53;;;;;;;;;;;;;;;11.28;67.57;100652.09;4486984;31;35223;-77
2022/10/10 01:55:49;;;;;;;;;;;;;;;11.57;66.52;100660.25;4486623;31;34517;-77
2022/10/10 01:58:44;;;;;;;;;;;;;;;11.60;66.46;100657.75;4497969;31;34097;-77
2022/10/10 02:01:34;;;;;;;;;;;;;;;11.49;67.27;100675.44;4486053;31;34505;-77
2022/10/10 02:04:24;;;;;;;;;;;;;;;11.41;67.76;100676.91;4485707;31;35667;-77
2022/10/10 02:07:16;;;;;;;;;;;;;;;11.35;67.86;100669.81;4487320;31;35488;-77
2022/10/10 02:10:03;;;;;;;;;;;;;;;11.53;67.04;100668.28;4486222;31;34853;-77
2022/10/10 02:12:49;;;;;;;;;;;;;;;11.57;66.14;100660.25;4486429;31;34978;-77
2022/10/10 02:15:37;;;;;;;;;;;;;;;11.53;66.84;100660.03;4486038;31;35707;-77
2022/10/10 02:18:24;;;;;;;;;;;;;;;11.38;67.78;100673.91;4485966;31;35182;-77
2022/10/10 02:21:10;;;;;;;;;;;;;;;11.28;68.28;100660.31;4476836;31;34236;-77
2022/10/10 02:23:57;;;;;;;;;;;;;;;11.47;67.26;100662.03;4486765;31;35715;-77
2022/10/10 02:26:45;;;;;;;;;;;;;;;11.18;68.18;100659.28;4486960;31;35018;-77
2022/10/10 02:29:32;;;;;;;;;;;;;;;11.36;67.44;100663.25;4498020;31;35306;-77
2022/10/10 02:32:38;;;;;;;;;;;;;;;11.49;66.90;100653.47;4485466;31;34917;-77
2022/10/10 02:35:25;;;;;;;;;;;;;;;11.48;66.55;100668.31;4498129;31;35761;-77
2022/10/10 02:38:12;;;;;;;;;;;;;;;11.32;67.96;100675.09;4497741;31;35199;-77
2022/10/10 02:41:02;;;;;;;;;;;;;;;11.34;68.13;100670.13;4498240;31;34932;-77
2022/10/10 02:43:48;;;;;;;;;;;;;;;11.53;66.34;100665.53;4499070;31;33679;-77
2022/10/10 02:46:34;;;;;;;;;;;;;;;11.37;67.43;100675.03;4486393;31;35740;-77
2022/10/10 02:49:27;;;;;;;;;;;;;;;11.40;66.32;100667.03;4486424;31;34674;-77
2022/10/10 02:52:14;;;;;;;;;;;;;;;11.47;67.33;100661.22;4486112;31;34540;-77
2022/10/10 02:55:00;;;;;;;;;;;;;;;11.29;66.96;100662.75;4485607;31;33716;-77
2022/10/10 02:57:46;;;;;;;;;;;;;;;11.35;67.82;100669.00;4491866;31;34941;-77
2022/10/10 03:00:32;;;;;;;;;;;;;;;11.38;68.18;100655.53;4496949;31;36222;-77
2022/10/10 03:03:19;;;;;;;;;;;;;;;11.41;67.13;100663.19;4497495;31;35023;-77
2022/10/10 03:06:05;;;;;;;;;;;;;;;11.45;67.58;100657.94;4486574;31;34090;-77
2022/10/10 03:08:51;;;;;;;;;;;;;;;11.31;67.86;100655.06;4497333;31;35753;-77
2022/10/10 03:11:37;;;;;;;;;;;;;;;11.44;67.08;100645.31;4485197;31;36190;-77
2022/10/10 03:14:23;;;;;;;;;;;;;;;11.18;68.86;100659.28;4484879;31;35571;-77
2022/10/10 03:17:09;;;;;;;;;;;;;;;11.24;68.24;100663.66;4497315;31;34375;-77
2022/10/10 03:19:55;;;;;;;;;;;;;;;11.08;68.77;100664.91;4484692;31;34491;-77
2022/10/10 03:22:41;;;;;;;;;;;;;;;11.34;67.69;100656.41;4498708;31;33818;-77
2022/10/10 03:25:28;;;;;;;;;;;;;;;11.22;68.45;100654.06;4497383;31;34883;-77
2022/10/10 03:28:14;;;;;;;;;;;;;;;11.38;67.06;100646.47;4484566;31;33993;-77
2022/10/10 03:31:00;;;;;;;;;;;;;;;11.23;68.51;100647.47;4497968;31;35587;-77
2022/10/10 03:33:46;;;;;;;;;;;;;;;11.20;68.69;100648.06;4485682;31;36013;-77
2022/10/10 03:36:32;;;;;;;;;;;;;;;11.19;68.60;100652.72;4485694;31;33634;-77
2022/10/10 03:39:17;;;;;;;;;;;;;;;11.20;69.04;100651.59;4485366;31;34120;-77
2022/10/10 03:42:04;;;;;;;;;;;;;;;11.12;69.60;100651.41;4496454;31;34909;-77
2022/10/10 03:44:50;;;;;;;;;;;;;;;10.96;69.88;100650.78;4474808;31;35150;-78
2022/10/10 03:47:36;;;;;;;;;;;;;;;11.10;69.88;100657.22;4496925;31;35789;-78
2022/10/10 03:50:22;;;;;;;;;;;;;;;11.30;68.58;100660.81;4485207;31;32824;-78
2022/10/10 03:53:08;;;;;;;;;;;;;;;11.27;68.34;100651.28;4497311;31;34681;-78
2022/10/10 03:55:54;;;;;;;;;;;;;;;11.13;69.25;100650.34;4497478;31;35887;-78
2022/10/10 03:58:41;;;;;;;;;;;;;;;11.21;68.95;100647.78;4495919;31;35512;-78
2022/10/10 04:01:27;;;;;;;;;;;;;;;11.18;68.93;100645.59;4485610;31;34009;-78
2022/10/10 04:04:13;;;;;;;;;;;;;;;11.17;69.20;100652.19;4497915;31;35418;-78
2022/10/10 04:06:59;;;;;;;;;;;;;;;11.18;69.10;100655.75;4484987;31;35271;-78
2022/10/10 04:09:45;;;;;;;;;;;;;;;11.06;69.75;100644.34;4485444;31;35044;-78
2022/10/10 04:12:30;;;;;;;;;;;;;;;11.23;69.66;100640.03;4496866;31;33815;-78
2022/10/10 04:15:16;;;;;;;;;;;;;;;10.96;70.75;100646.09;4486641;31;33883;-78
2022/10/10 04:18:02;;;;;;;;;;;;;;;11.07;70.20;100645.97;4484470;31;35212;-78
2022/10/10 04:20:49;;;;;;;;;;;;;;;11.10;69.59;100646.25;4496411;31;34819;-78
2022/10/10 04:23:34;;;;;;;;;;;;;;;11.15;69.60;100648.91;4484313;31;34808;-78
2022/10/10 04:26:21;;;;;;;;;;;;;;;11.06;69.93;100641.63;4496891;31;35454;-79
2022/10/10 04:29:07;;;;;;;;;;;;;;;11.11;70.10;100647.88;4495369;31;34935;-79
2022/10/10 04:31:54;;;;;;;;;;;;;;;11.16;69.51;100642.34;4495904;31;34788;-78
2022/10/10 04:34:39;;;;;;;;;;;;;;;10.96;70.72;100640.63;4495931;31;33626;-79
2022/10/10 04:37:25;;;;;;;;;;;;;;;11.07;70.12;100638.59;4495894;31;35540;-79
2022/10/10 04:40:11;;;;;;;;;;;;;;;10.97;70.11;100642.25;4496905;31;35272;-78
2022/10/10 04:42:57;;;;;;;;;;;;;;;10.97;70.59;100649.66;4485657;31;34747;-78
2022/10/10 04:45:43;;;;;;;;;;;;;;;11.06;70.46;100645.16;4498456;31;34244;-79
2022/10/10 04:48:29;;;;;;;;;;;;;;;11.00;71.02;100649.06;4498344;31;35007;-78
2022/10/10 04:51:15;;;;;;;;;;;;;;;11.03;70.81;100641.06;4498117;31;34816;-78
2022/10/10 04:54:02;;;;;;;;;;;;;;;11.10;70.54;100651.72;4498285;31;34952;-79
2022/10/10 04:56:47;;;;;;;;;;;;;;;11.18;69.83;100653.00;4486213;31;34972;-79
2022/10/10 04:59:34;;;;;;;;;;;;;;;11.12;70.36;100659.66;4498263;31;33526;-79
2022/10/10 05:02:20;;;;;;;;;;;;;;;11.17;70.20;100657.66;4498210;31;35164;-79
2022/10/10 05:05:06;;;;;;;;;;;;;;;10.89;71.08;100662.06;4483659;31;35126;-78
2022/10/10 05:07:52;;;;;;;;;;;;;;;10.73;72.61;100658.66;4486103;31;35176;-79
2022/10/10 05:10:40;;;;;;;;;;;;;;;11.16;70.73;100657.97;4498213;31;34480;-79
2022/10/10 05:13:26;;;;;;;;;;;;;;;11.17;70.35;100646.69;4498034;31;35294;-78
2022/10/10 05:16:13;;;;;;;;;;;;;;;11.19;70.47;100649.97;4487084;31;34886;-79
2022/10/10 05:19:00;;;;;;;;;;;;;;;11.13;70.73;100655.81;4498109;31;34915;-79
2022/10/10 05:21:46;;;;;;;;;;;;;;;11.09;71.13;100650.06;4497941;31;35005;-78
2022/10/10 05:24:32;;;;;;;;;;;;;;;10.99;71.42;100647.44;4497893;31;35304;-78
2022/10/10 05:27:18;;;;;;;;;;;;;;;10.87;72.36;100657.97;4498059;31;35322;-79
2022/10/10 05:30:04;;;;;;;;;;;;;;;10.96;72.28;100654.31;4497851;31;35029;-79
2022/10/10 05:32:50;;;;;;;;;;;;;;;11.10;71.88;100657.22;4497821;31;34898;-79
2022/10/10 05:35:37;;;;;;;;;;;;;;;11.11;72.57;100660.78;4486058;31;33831;-78
2022/10/10 05:38:23;;;;;;;;;;;;;;;11.24;71.32;100658.16;4497927;31;34885;-79
2022/10/10 05:41:09;;;;;;;;;;;;;;;11.28;71.19;100657.59;4485850;31;33838;-79
2022/10/10 05:43:55;;;;;;;;;;;;;;;11.32;70.66;100655.88;4486463;31;34515;-78
2022/10/10 05:46:41;;;;;;;;;;;;;;;11.54;70.42;100655.38;4497872;31;35291;-79
2022/10/10 05:49:27;;;;;;;;;;;;;;;11.45;70.50;100664.22;4498040;31;34933;-78
2022/10/10 05:52:13;;;;;;;;;;;;;;;11.45;70.25;100664.22;4497423;31;34668;-78
2022/10/10 05:54:59;;;;;;;;;;;;;;;11.64;69.41;100669.78;4497895;31;34717;-79
2022/10/10 05:57:45;;;;;;;;;;;;;;;11.44;69.92;100662.62;4486201;31;35673;-79
2022/10/10 06:00:33;;;;;;;;;;;;;;;11.74;67.91;100668.84;4497595;31;35967;-79
2022/10/10 06:03:19;;;;;;;;;;;;;;;11.56;68.90;100669.62;4498507;31;34378;-79
2022/10/10 06:06:05;;;;;;;;;;;;;;;11.83;67.41;100671.75;4497848;31;34998;-78
2022/10/10 06:08:52;;;;;;;;;;;;;;;11.71;68.56;100672.97;4485823;31;35217;-79
2022/10/10 06:11:38;;;;;;;;;;;;;;;11.76;68.61;100674.06;4485811;31;34907;-78
2022/10/10 06:14:24;;;;;;;;;;;;;;;11.87;68.02;100673.66;4485898;31;34145;-78
2022/10/10 06:17:10;;;;;;;;;;;;;;;12.07;67.65;100669.00;4497576;31;34444;-79
2022/10/10 06:19:57;;;;;;;;;;;;;;;12.15;65.94;100671.91;4497582;31;35235;-78
2022/10/10 06:22:43;;;;;;;;;;;;;;;12.28;66.65;100664.84;4497577;31;34761;-78
2022/10/10 06:25:30;;;;;;;;;;;;;;;12.29;66.29;100665.66;4497587;31;34205;-78
2022/10/10 06:28:26;;;;;;;;;;;;;;;12.51;64.48;100668.59;4483846;31;35683;-79
2022/10/10 06:31:12;;;;;;;;;;;;;;;12.51;64.19;100665.84;4497150;31;35312;-79
2022/10/10 06:33:58;;;;;;;;;;;;;;;12.38;65.40;100666.63;4475260;31;34466;-79
2022/10/10 06:36:45;;;;;;;;;;;;;;;12.19;64.94;100671.31;4497504;31;34115;-78
2022/10/10 06:39:31;;;;;;;;;;;;;;;12.70;63.37;100662.28;4497341;31;34869;-79
2022/10/10 06:42:17;;;;;;;;;;;;;;;11.51;65.99;100662.25;4498791;31;34897;-78
2022/10/10 06:45:03;;;;;;;;;;;;;;;12.08;63.82;100670.63;4486341;31;34510;-78
2022/10/10 06:47:49;;;;;;;;;;;;;;;12.36;63.88;100666.09;4497667;31;34067;-79
2022/10/10 06:50:34;;;;;;;;;;;;;;;12.34;63.50;100662.84;4497388;31;34877;-79
2022/10/10 06:53:21;;;;;;;;;;;;;;;12.56;64.30;100674.03;4485480;31;35226;-79
2022/10/10 06:56:07;;;;;;;;;;;;;;;12.67;61.82;100671.94;4497264;31;35066;-78
2022/10/10 06:58:53;;;;;;;;;;;;;;;12.86;62.58;100668.31;4497674;31;33197;-78
2022/10/10 07:01:39;;;;;;;;;;;;;;;13.13;61.62;100662.91;4484616;31;35743;-78
2022/10/10 07:04:26;;;;;;;;;;;;;;;13.03;61.15;100666.66;4497249;31;35977;-79
2022/10/10 07:07:11;;;;;;;;;;;;;;;12.91;60.99;100669.06;4485639;31;34565;-79
2022/10/10 07:09:58;;;;;;;;;;;;;;;12.92;62.84;100667.13;4497260;31;33999;-79
2022/10/10 07:12:43;;;;;;;;;;;;;;;13.30;60.47;100662.34;4497328;31;35294;-78
2022/10/10 07:15:30;;;;;;;;;;;;;;;13.52;59.38;100666.31;4497463;31;34061;-78
2022/10/10 07:18:16;;;;;;;;;;;;;;;13.18;60.86;100670.25;4484926;31;35670;-79
2022/10/10 07:21:03;;;;;;;;;;;;;;;13.42;59.51;100670.91;4497371;31;34195;-78
2022/10/10 07:23:49;;;;;;;;;;;;;;;13.40;59.67;100670.41;4497203;31;35004;-78
2022/10/10 07:26:37;;;;;;;;;;;;;;;13.41;59.27;100672.03;4496969;31;35089;-78
2022/10/10 07:29:23;;;;;;;;;;;;;;;13.22;59.17;100669.34;4497216;31;34949;-78
2022/10/10 07:32:09;;;;;;;;;;;;;;;13.49;57.94;100676.84;4496925;31;35013;-78
2022/10/10 07:34:57;;;;;;;;;;;;;;;13.67;58.14;100677.87;4498371;31;34686;-78
2022/10/10 07:37:44;;;;;;;;;;;;;;;13.81;57.51;100672.34;4493978;31;34687;-79
2022/10/10 07:40:29;;;;;;;;;;;;;;;13.78;56.38;100675.72;4485031;31;34639;-78
2022/10/10 07:43:15;;;;;;;;;;;;;;;14.05;56.40;100665.78;4484835;31;33648;-79
2022/10/10 07:46:01;;;;;;;;;;;;;;;14.15;55.84;100665.56;4484821;31;35482;-79
2022/10/10 07:48:51;;;;;;;;;;;;;;;14.21;56.02;100669.84;4485098;31;35082;-78
2022/10/10 07:51:37;;;;;;;;;;;;;;;14.08;56.64;100665.16;4496881;31;35896;-79
2022/10/10 07:54:23;;;;;;;;;;;;;;;13.89;58.03;100666.12;4497026;31;34226;-78
2022/10/10 07:57:08;;;;;;;;;;;;;;;14.52;58.07;100663.66;4497778;31;33651;-78
2022/10/10 07:59:55;;;;;;;;;;;;;;;14.47;55.56;100677.53;4496710;31;35218;-78
2022/10/10 08:02:41;;;;;;;;;;;;;;;14.59;54.93;100664.00;4496743;31;34755;-78
2022/10/10 08:05:27;;;;;;;;;;;;;;;14.40;56.70;100661.41;4485197;31;34188;-78
2022/10/10 08:08:13;;;;;;;;;;;;;;;14.38;56.58;100664.47;4496863;31;35025;-78
2022/10/10 08:10:59;;;;;;;;;;;;;;;14.47;57.31;100661.78;4496914;31;35199;-78
2022/10/10 08:13:45;;;;;;;;;;;;;;;14.77;56.69;100668.53;4496392;31;34843;-78
2022/10/10 08:16:31;;;;;;;;;;;;;;;14.76;54.95;100669.66;4484684;31;34143;-78
2022/10/10 08:19:17;;;;;;;;;;;;;;;14.52;56.52;100661.69;4484885;31;35839;-78
2022/10/10 08:22:03;;;;;;;;;;;;;;;15.13;55.62;100664.84;4496740;31;34845;-78
2022/10/10 08:24:49;;;;;;;;;;;;;;;14.67;57.18;100665.22;4484632;31;35649;-78
2022/10/10 08:27:36;;;;;;;;;;;;;;;14.51;57.35;100656.44;4496610;31;34204;-78
2022/10/10 08:30:22;;;;;;;;;;;;;;;14.48;58.20;100651.56;4484375;31;35847;-78
2022/10/10 08:33:08;;;;;;;;;;;;;;;15.26;53.72;100652.91;4484180;31;35043;-79
2022/10/10 08:35:54;;;;;;;;;;;;;;;15.12;55.50;100656.91;4484878;31;35648;-78
2022/10/10 08:38:40;;;;;;;;;;;;;;;15.62;51.87;100640.84;4485365;31;34453;-78
2022/10/10 08:41:32;;;;;;;;;;;;;;;15.41;52.93;100640.63;4497014;31;35891;-78
2022/10/10 08:44:26;;;;;;;;;;;;;;;15.77;53.36;100641.56;4484168;31;35275;-79
2022/10/10 08:47:16;;;;;;;;;;;;;;;15.63;51.08;100639.72;4485298;31;35771;-78
2022/10/10 08:50:05;;;;;;;;;;;;;;;15.94;50.41;100641.63;4484933;31;34351;-78
2022/10/10 08:52:53;;;;;;;;;;;;;;;16.16;47.65;100627.63;4496558;31;34455;-78
2022/10/10 08:55:42;;;;;;;;;;;;;;;15.89;48.07;100627.97;4484751;31;35222;-78
2022/10/10 08:58:36;;;;;;;;;;;;;;;15.91;48.86;100625.69;4484656;31;35694;-79
2022/10/10 09:01:32;;;;;;;;;;;;;;;16.05;47.85;100629.12;4496248;31;34952;-79
2022/10/10 09:04:18;;;;;;;;;;;;;;;16.19;46.56;100632.53;4484092;31;35841;-78
2022/10/10 09:07:31;;;;;;;;;;;;;;;16.78;46.09;100632.03;4484211;31;35303;-78
2022/10/10 09:10:22;;;;;;;;;;;;;;;16.54;47.45;100626.19;4485026;31;35648;-78
2022/10/10 09:13:27;;;;;;;;;;;;;;;16.58;46.60;100624.38;4495972;31;34085;-78
2022/10/10 09:16:29;;;;;;;;;;;;;;;16.82;46.95;100621.94;4495968;31;34569;-78
2022/10/10 09:19:23;;;;;;;;;;;;;;;16.15;48.12;100614.97;4484442;31;35288;-78
2022/10/10 09:22:10;;;;;;;;;;;;;;;17.04;47.48;100617.31;4495883;31;35708;-79
2022/10/10 09:24:58;;;;;;;;;;;;;;;16.89;45.95;100623.41;4495604;31;34208;-78
2022/10/10 09:27:46;;;;;;;;;;;;;;;16.84;45.58;100616.87;4485770;31;35010;-78
2022/10/10 09:30:34;;;;;;;;;;;;;;;17.20;44.83;100609.28;4479856;31;35246;-79
2022/10/10 09:33:34;;;;;;;;;;;;;;;17.35;45.06;100613.47;4463959;31;35603;-78
2022/10/10 09:36:22;;;;;;;;;;;;;;;17.43;45.66;100613.41;4486017;31;34681;-78
2022/10/10 09:39:23;;;;;;;;;;;;;;;18.04;42.37;100612.25;4485960;31;32791;-79
2022/10/10 09:42:10;;;;;;;;;;;;;;;17.98;41.60;100617.19;4497796;31;34863;-79
2022/10/10 09:44:56;;;;;;;;;;;;;;;18.21;40.92;100612.12;4497706;31;36011;-79
2022/10/10 09:47:42;;;;;;;;;;;;;;;18.57;40.22;100610.66;4498066;31;34194;-79
2022/10/10 09:50:28;;;;;;;;;;;;;;;18.68;39.87;100611.88;4474814;31;34470;-79
2022/10/10 09:53:15;;;;;;;;;;;;;;;18.62;40.48;100607.69;4498804;31;34827;-79
2022/10/10 09:56:01;;;;;;;;;;;;;;;18.64;41.33;100608.97;4486185;31;35335;-79
2022/10/10 09:58:47;;;;;;;;;;;;;;;19.52;39.48;100603.22;4497556;31;33675;-79
2022/10/10 10:01:33;;;;;;;3.60;1.27;;;;;;;19.71;37.49;100600.69;4497644;31;35500;-79
2022/10/10 10:04:21;;;;;;;4.47;1.50;;;;;;;19.66;38.77;100597.34;4496030;31;34087;-79
2022/10/10 10:07:24;;;;;;;3.87;1.62;;;;;;;19.79;36.73;100598.16;4496150;31;33806;-79
2022/10/10 10:10:18;;;;;;;3.05;1.42;;;;;;;20.71;35.05;100599.25;4484765;31;32831;-80
2022/10/10 10:13:11;;;;;;;5.25;2.03;;;;;;;21.08;35.09;100592.28;4483927;31;34799;-80
2022/10/10 10:16:08;;;;;;;4.43;1.40;;;;;;;21.06;34.62;100603.00;4484090;31;34137;-80
2022/10/10 10:18:54;;;;;;;4.33;1.83;;;;;;;21.74;32.75;100595.47;4492689;31;33623;-79
2022/10/10 10:21:50;;;;;;;5.87;1.87;;;;;;;21.32;34.88;100601.66;4496252;31;32990;-79
2022/10/10 10:24:37;;;;;;;5.57;1.83;;;;;;;22.09;34.13;100594.69;4483878;31;33793;-80
2022/10/10 10:27:24;;;;;;;;;;;;;;;22.56;33.09;100585.28;4496714;31;35966;-80
2022/10/10 10:30:22;;;;;;;;;;;;;;;21.60;33.97;100587.62;4486374;31;35120;-79
2022/10/10 10:33:13;;;;;;;;;;;;;;;22.32;32.55;100580.84;4486177;31;34182;-80
2022/10/10 10:36:18;;;;;;;;;;;;;;;22.97;31.03;100577.28;4485955;31;35641;-80
2022/10/10 10:39:25;;;;;;;;;;;;;;;21.86;32.61;100578.66;4497014;31;36362;-80
2022/10/10 10:42:27;;;;;;;4.22;1.23;;;;;;;23.02;32.33;100574.19;4494786;31;34516;-80
2022/10/10 10:45:15;;;;;;;;;;;;;;;21.41;32.86;100568.84;4497593;31;33870;-79
2022/10/10 10:48:04;;;;;;;;;;;;;;;22.21;33.14;100558.28;4496797;31;35906;-79
2022/10/10 10:51:01;;;;;;;;;;;;;;;22.30;31.83;100556.06;4495656;31;34967;-79
2022/10/10 10:53:55;;;;;;;;;;;;;;;21.89;32.87;100561.16;4486530;31;34877;-79
2022/10/10 10:56:41;;;;;;;;;;;;;;;22.76;29.06;100556.13;4484050;31;34043;-79
2022/10/10 10:59:30;;;;;;;;;;;;;;;21.79;31.10;100554.16;4495013;31;34824;-82
2022/10/10 11:02:55;;;;;;;;;;;;;;;20.25;34.04;100546.66;4492864;31;34857;-83
2022/10/10 11:05:59;;;;;;;;;;;;;;;20.62;34.88;100543.72;4494110;31;34953;-83
2022/10/10 11:08:49;;;;;;;;;;;;;;;19.51;35.05;100541.25;4482537;31;33542;-83
2022/10/10 11:11:47;;;;;;;;;;;;;;;20.38;32.90;100536.28;4493369;31;35191;-83
2022/10/10 11:14:46;;;;;;;;;;;;;;;20.93;32.44;100545.72;4481226;31;34656;-83
2022/10/10 11:17:36;;;;;;;;;;;;;;;20.87;32.71;100536.03;4484038;31;33480;-83
2022/10/10 11:20:46;;;;;;;;;;;;;;;20.50;32.38;100539.00;4462528;31;33710;-83
2022/10/10 11:23:33;;;;;;;;;;;;;;;19.57;34.55;100535.47;4493905;31;34283;-82
2022/10/10 11:26:23;;;;;;;;;;;;;;;20.28;33.43;100523.69;4466445;31;888787;-82
2022/10/10 11:29:17;;;;;;;;;;;;;;;19.64;35.09;100516.25;4486295;31;35179;-83
2022/10/10 11:32:09;;;;;;;;;;;;;;;20.04;33.94;100521.81;4496755;31;33772;-83
2022/10/10 11:34:55;;;;;;;;;;;;;;;19.96;34.69;100514.44;4488054;31;33227;-83
2022/10/10 11:37:43;;;;;;;;;;;;;;;20.61;34.31;100508.69;4475047;31;35238;-83
2022/10/10 11:40:44;;;;;;;;;;;;;;;20.08;34.86;100500.47;4489354;31;34856;-83
2022/10/10 11:43:51;;;;;;;;;;;;;;;19.87;34.14;100500.69;4485424;31;33616;-83
2022/10/10 11:46:49;;;;;;;;;;;;;;;20.49;35.84;100497.59;4496087;31;35367;-82
2022/10/10 11:49:38;;;;;;;;;;;;;;;20.33;34.25;100500.38;4497110;31;34867;-83
2022/10/10 11:52:27;;;;;;;;;;;;;;;20.04;35.04;100485.66;4497747;31;35153;-83
2022/10/10 11:55:21;;;;;;;;;;;;;;;19.86;35.68;100492.69;4496868;31;32315;-83
2022/10/10 11:58:07;;;;;;;;;;;;;;;19.59;35.36;100500.59;4479584;31;34885;-83
2022/10/10 12:00:55;;;;;;;;;;;;;;;20.16;33.95;100487.56;4497134;31;35263;-82
2022/10/10 12:03:41;;;;;;;;;;;;;;;20.37;34.44;100488.16;4474511;31;34925;-81
2022/10/10 12:06:36;;;;;;;;;;;;;;;20.40;34.50;100479.09;4497225;31;35004;-82
2022/10/10 12:09:43;;;;;;;;;;;;;;;20.52;32.44;100474.59;4496619;31;33308;-81
2022/10/10 12:12:29;;;;;;;;;;;;;;;19.53;34.22;100468.66;4496573;31;35793;-84
2022/10/10 12:15:27;;;;;;;;;;;;;;;20.15;34.34;100467.31;4484761;31;34197;-82
2022/10/10 12:18:23;;;;;;;;;;;;;;;20.35;33.28;100467.41;4487615;31;32133;-82
2022/10/10 12:21:17;;;;;;;;;;;;;;;20.20;32.88;100463.44;4484192;31;35770;-82
2022/10/10 12:24:10;;;;;;;;;;;;;;;20.49;33.50;100459.44;4482645;31;34654;-82
2022/10/10 12:26:56;;;;;;;;;;;;;;;20.59;33.33;100453.38;4486634;31;34693;-82
2022/10/10 12:30:08;;;;;;;;;;;;;;;20.11;35.05;100448.88;4496020;31;34074;-82
2022/10/10 12:32:54;;;;;;;;;;;;;;;20.58;34.39;100462.91;4486465;31;33312;-81
2022/10/10 12:35:40;;;;;;;;;;;;;;;20.85;33.04;100455.59;4486821;31;35318;-83
2022/10/10 12:38:27;;;;;;;;;;;;;;;20.01;34.37;100455.78;4486229;31;33524;-82
2022/10/10 12:41:16;;;;;;;;;;;;;;;19.94;33.81;100455.56;4498438;31;34815;-82
2022/10/10 12:44:21;;;;;;;;;;;;;;;20.37;33.27;100453.94;4477432;31;34923;-83
2022/10/10 12:47:13;;;;;;;;;;;;;;;20.08;33.23;100455.97;4482974;31;34836;-82
2022/10/10 12:50:00;;;;;;;;;;;;;;;20.38;34.94;100458.38;4496180;31;33755;-82
2022/10/10 12:52:47;;;;;;;;;;;;;;;20.35;34.65;100459.06;4482562;31;34381;-82
2022/10/10 12:55:39;;;;;;;;;;;;;;;21.07;33.80;100451.34;4483300;31;35393;-82
2022/10/10 12:58:27;;;;;;;;;;;;;;;20.24;35.12;100452.41;4496642;31;34857;-82
2022/10/10 13:01:23;;;;;;;;;;;;;;;21.36;34.38;100454.78;4477057;31;34994;-82
2022/10/10 13:04:09;;;;;;;;;;;;;;;22.03;31.88;100435.09;4485778;31;34076;-83
2022/10/10 13:06:56;;;;;;;;;;;;;;;22.56;30.79;100435.28;4498303;31;33395;-82
2022/10/10 13:09:43;;;;;;;;;;;;;;;22.01;31.32;100427.09;4478796;31;35248;-82
2022/10/10 13:12:29;;;;;;;;;;;;;;;22.18;31.88;100425.84;4498671;31;34983;-83
2022/10/10 13:15:18;;;;;;;;;;;;;;;22.00;31.02;100428.28;4485929;31;33860;-83
2022/10/10 13:18:04;;;;;;;;;;;;;;;21.49;31.35;100428.44;4479517;31;34945;-82
2022/10/10 13:20:50;;;;;;;;;;;;;;;21.35;31.49;100430.88;4498355;31;34791;-83
2022/10/10 13:23:39;;;;;;;;;;;;;;;20.72;32.28;100428.19;4485953;31;34056;-82
2022/10/10 13:26:25;;;;;;;;;;;;;;;21.21;31.73;100416.63;4498355;31;33735;-82
2022/10/10 13:29:26;;;;;;;;;;;;;;;21.39;31.91;100419.84;4498514;31;34751;-83
2022/10/10 13:32:13;;;;;;;;;;;;;;;21.48;32.11;100410.06;4485486;31;35068;-83
2022/10/10 13:35:19;;;;;;;;;;;;;;;21.71;31.06;100407.34;4477375;31;35769;-83
2022/10/10 13:38:05;;;;;;;;;;;;;;;21.83;31.88;100403.63;4497429;31;34339;-82
2022/10/10 13:40:51;;;;;;;;;;;;;;;21.79;31.76;100414.69;4496679;31;34464;-83
2022/10/10 13:43:39;;;;;;;;;;;;;;;21.87;31.24;100410.06;4485430;31;35145;-82
2022/10/10 13:46:29;;;;;;;;;;;;;;;21.92;32.09;100404.19;4485237;31;33103;-82
2022/10/10 13:49:33;;;;;;;;;;;;;;;21.19;32.09;100408.62;4497050;31;32291;-83
2022/10/10 13:52:20;;;;;;;;;;;;;;;21.23;32.56;100408.69;4477786;31;34348;-82
2022/10/10 13:55:13;;;;;;;;;;;;;;;21.72;30.86;100400.63;4485221;31;35197;-82
2022/10/10 13:57:59;;;;;;;;;;;;;;;21.77;30.81;100402.28;4476286;31;34269;-83
2022/10/10 14:00:52;;;;;;;;;;;;;;;21.29;31.94;100396.91;4488329;31;35167;-83
2022/10/10 14:03:38;;;;;;;;;;;;;;;21.59;30.88;100398.34;4488739;31;34942;-82
2022/10/10 14:06:25;;;;;;;;;;;;;;;20.98;32.63;100394.22;4485210;31;35702;-81
2022/10/10 14:09:17;;;;;;;;;;;;;;;21.49;31.34;100386.63;4479824;31;33410;-82
2022/10/10 14:12:04;;;;;;;;;;;;;;;21.32;32.59;100378.66;4483505;31;33531;-82
2022/10/10 14:14:51;;;;;;;;;;;;;;;21.32;33.95;100373.09;4499126;31;34935;-82
2022/10/10 14:17:36;;;;;;;;;;;;;;;20.85;34.03;100385.97;4498119;31;36104;-83
2022/10/10 14:20:23;;;;;;;;;;;;;;;21.02;33.71;100370.84;4489835;31;34917;-83
2022/10/10 14:23:09;;;;;;;;;;;;;;;21.02;34.26;100381.19;4484832;31;34703;-83